createdAt,value
2018-11-21T00:00:09.085Z,88.98
2018-11-21T00:02:37.368Z,88.82
2018-11-21T00:05:06.244Z,88.56
2018-11-21T00:07:37.697Z,88.55
2018-11-21T00:10:08.733Z,88.60
2018-11-21T00:12:37.509Z,88.60
2018-11-21T00:15:07.548Z,88.81
2018-11-21T00:17:35.856Z,88.77
2018-11-21T00:20:04.185Z,88.61
2018-11-21T00:22:32.503Z,88.87
2018-11-21T00:25:00.785Z,89.00
2018-11-21T00:27:29.103Z,88.68
2018-11-21T00:29:57.501Z,88.53
2018-11-21T00:32:26.623Z,88.81
2018-11-21T00:34:55.531Z,88.98
2018-11-21T00:37:24.533Z,89.02
2018-11-21T00:39:53.552Z,89.29
2018-11-21T00:42:21.865Z,89.37
2018-11-21T00:44:50.195Z,89.33
2018-11-21T00:47:18.633Z,88.97
2018-11-21T00:49:46.912Z,89.19
2018-11-21T00:52:15.232Z,89.02
2018-11-21T00:54:43.752Z,89.00
2018-11-21T00:57:11.841Z,89.17
2018-11-21T00:59:40.127Z,89.46
2018-11-21T01:02:08.431Z,89.61
2018-11-21T01:04:36.710Z,89.49
2018-11-21T01:07:05.023Z,89.53
2018-11-21T01:09:33.304Z,89.19
2018-11-21T01:12:01.616Z,89.29
2018-11-21T01:14:29.944Z,89.14
2018-11-21T01:16:58.249Z,88.49
2018-11-21T01:19:26.593Z,88.69
2018-11-21T01:21:54.880Z,88.39
2018-11-21T01:24:23.189Z,87.42
2018-11-21T01:26:51.483Z,87.58
2018-11-21T01:29:19.792Z,87.89
2018-11-21T01:31:48.086Z,88.10
2018-11-21T01:34:16.395Z,87.71
2018-11-21T01:36:44.681Z,87.61
2018-11-21T01:39:12.991Z,87.80
2018-11-21T01:41:41.346Z,86.90
2018-11-21T01:44:09.678Z,87.05
2018-11-21T01:46:37.981Z,87.36
2018-11-21T01:49:06.347Z,86.88
2018-11-21T01:51:34.627Z,86.73
2018-11-21T01:54:02.933Z,86.46
2018-11-21T01:56:31.221Z,86.86
2018-11-21T01:58:59.532Z,87.07
2018-11-21T02:01:27.811Z,86.81
2018-11-21T02:03:56.147Z,87.49
2018-11-21T02:06:24.427Z,87.30
2018-11-21T02:08:52.813Z,86.84
2018-11-21T02:11:21.095Z,86.93
2018-11-21T02:13:49.408Z,87.25
2018-11-21T02:16:17.693Z,87.13
2018-11-21T02:18:45.999Z,86.63
2018-11-21T02:21:14.286Z,87.23
2018-11-21T02:23:42.591Z,86.81
2018-11-21T02:26:10.882Z,86.63
2018-11-21T02:28:39.169Z,87.12
2018-11-21T02:31:07.483Z,86.72
2018-11-21T02:33:35.772Z,87.09
2018-11-21T02:36:04.081Z,87.22
2018-11-21T02:38:32.362Z,87.47
2018-11-21T02:41:00.669Z,86.93
2018-11-21T02:43:28.987Z,87.36
2018-11-21T02:45:57.291Z,87.29
2018-11-21T02:48:25.703Z,87.12
2018-11-21T02:50:54.008Z,86.62
2018-11-21T02:53:22.311Z,87.10
2018-11-21T02:55:50.595Z,87.46
2018-11-21T02:58:18.890Z,87.29
2018-11-21T03:00:47.208Z,87.12
2018-11-21T03:03:15.485Z,86.71
2018-11-21T03:05:43.792Z,87.21
2018-11-21T03:08:12.077Z,86.09
2018-11-21T03:10:40.389Z,86.09
2018-11-21T03:13:08.668Z,86.10
2018-11-21T03:15:36.983Z,86.40
2018-11-21T03:18:05.542Z,86.68
2018-11-21T03:20:33.843Z,86.79
2018-11-21T03:23:02.127Z,86.87
2018-11-21T03:25:30.431Z,87.27
2018-11-21T03:27:58.724Z,88.11
2018-11-21T03:30:27.029Z,88.34
2018-11-21T03:32:55.332Z,88.15
2018-11-21T03:35:23.615Z,88.51
2018-11-21T03:37:51.922Z,88.87
2018-11-21T03:40:20.203Z,89.20
2018-11-21T03:42:48.515Z,89.69
2018-11-21T03:45:16.795Z,89.98
2018-11-21T03:47:45.100Z,90.34
2018-11-21T03:50:13.514Z,90.66
2018-11-21T03:52:41.820Z,90.99
2018-11-21T03:55:10.603Z,91.48
2018-11-21T03:57:38.944Z,91.63
2018-11-21T04:00:11.631Z,91.90
2018-11-21T04:02:39.985Z,92.25
2018-11-21T04:05:08.891Z,92.32
2018-11-21T04:07:37.356Z,92.69
2018-11-21T04:10:11.498Z,92.76
2018-11-21T04:12:39.930Z,92.66
2018-11-21T04:15:09.707Z,92.54
2018-11-21T04:17:38.023Z,92.50
2018-11-21T04:20:06.682Z,92.71
2018-11-21T04:22:34.987Z,92.71
2018-11-21T04:25:03.292Z,92.54
2018-11-21T04:27:31.605Z,92.65
2018-11-21T04:29:59.897Z,92.95
2018-11-21T04:32:28.261Z,93.06
2018-11-21T04:34:56.546Z,93.27
2018-11-21T04:37:24.855Z,93.04
2018-11-21T04:39:53.138Z,93.40
2018-11-21T04:42:21.460Z,93.44
2018-11-21T04:44:49.740Z,93.34
2018-11-21T04:47:18.045Z,93.44
2018-11-21T04:49:46.367Z,93.68
2018-11-21T04:52:14.682Z,93.97
2018-11-21T04:54:42.995Z,93.66
2018-11-21T04:57:11.296Z,93.98
2018-11-21T04:59:42.625Z,94.35
2018-11-21T05:02:10.917Z,94.21
2018-11-21T05:04:39.227Z,93.83
2018-11-21T05:07:07.519Z,93.97
2018-11-21T05:09:35.827Z,94.00
2018-11-21T05:12:04.116Z,94.00
2018-11-21T05:14:32.465Z,94.31
2018-11-21T05:17:00.713Z,94.56
2018-11-21T05:19:29.022Z,94.79
2018-11-21T05:21:57.314Z,94.97
2018-11-21T05:24:25.632Z,95.30
2018-11-21T05:26:53.926Z,95.51
2018-11-21T05:29:22.242Z,95.58
2018-11-21T05:31:50.722Z,95.50
2018-11-21T05:34:19.105Z,95.07
2018-11-21T05:36:47.397Z,94.99
2018-11-21T05:39:15.713Z,95.06
2018-11-21T05:41:44.029Z,95.24
2018-11-21T05:44:12.335Z,95.36
2018-11-21T05:46:40.622Z,95.15
2018-11-21T05:49:08.936Z,94.89
2018-11-21T05:51:37.280Z,94.90
2018-11-21T05:54:05.753Z,94.52
2018-11-21T05:56:34.070Z,94.15
2018-11-21T05:59:02.381Z,94.16
2018-11-21T06:01:30.668Z,94.24
2018-11-21T06:03:58.971Z,93.89
2018-11-21T06:06:27.259Z,93.36
2018-11-21T06:08:55.562Z,92.66
2018-11-21T06:11:23.853Z,92.59
2018-11-21T06:13:52.145Z,92.33
2018-11-21T06:16:20.451Z,91.96
2018-11-21T06:18:48.768Z,91.94
2018-11-21T06:21:17.081Z,92.08
2018-11-21T06:23:45.363Z,92.05
2018-11-21T06:26:13.676Z,92.22
2018-11-21T06:28:41.956Z,91.99
2018-11-21T06:31:10.260Z,92.01
2018-11-21T06:33:38.548Z,92.27
2018-11-21T06:36:06.860Z,92.34
2018-11-21T06:38:35.151Z,92.45
2018-11-21T06:41:03.615Z,92.69
2018-11-21T06:43:31.904Z,92.75
2018-11-21T06:46:00.214Z,92.92
2018-11-21T06:48:28.509Z,93.09
2018-11-21T06:50:56.831Z,92.94
2018-11-21T06:53:25.130Z,92.75
2018-11-21T06:55:53.439Z,92.70
2018-11-21T06:58:21.757Z,92.95
2018-11-21T07:00:50.077Z,92.70
2018-11-21T07:03:18.371Z,92.79
2018-11-21T07:05:46.712Z,92.75
2018-11-21T07:08:14.995Z,92.56
2018-11-21T07:10:43.306Z,92.44
2018-11-21T07:13:11.583Z,91.98
2018-11-21T07:15:39.901Z,91.91
2018-11-21T07:18:08.184Z,91.63
2018-11-21T07:20:36.495Z,91.57
2018-11-21T07:23:05.192Z,91.22
2018-11-21T07:25:33.499Z,90.67
2018-11-21T07:28:01.821Z,90.43
2018-11-21T07:30:30.085Z,90.14
2018-11-21T07:32:58.396Z,89.53
2018-11-21T07:35:26.692Z,88.85
2018-11-21T07:37:55.012Z,88.44
2018-11-21T07:40:23.303Z,87.74
2018-11-21T07:42:51.623Z,87.50
2018-11-21T07:45:19.920Z,87.38
2018-11-21T07:47:48.238Z,86.98
2018-11-21T07:50:17.879Z,86.63
2018-11-21T07:52:46.201Z,86.01
2018-11-21T07:55:14.685Z,85.71
2018-11-21T07:57:47.107Z,85.07
2018-11-21T08:03:03.964Z,85.03
2018-11-21T08:05:33.283Z,85.62
2018-11-21T08:08:08.438Z,86.69
2018-11-21T08:11:04.491Z,86.06
2018-11-21T08:13:50.288Z,84.77
2018-11-21T08:16:43.936Z,82.46
2018-11-21T08:19:40.250Z,77.58
2018-11-21T08:22:35.989Z,77.96
2018-11-21T08:25:18.040Z,81.12
2018-11-21T08:28:04.108Z,81.69
2018-11-21T08:30:32.400Z,83.41
2018-11-21T08:33:00.726Z,85.29
2018-11-21T08:35:29.020Z,84.78
2018-11-21T08:37:57.336Z,81.73
2018-11-21T08:40:25.640Z,78.19
2018-11-21T08:42:53.956Z,77.05
2018-11-21T08:45:22.246Z,73.73
2018-11-21T08:47:50.561Z,72.29
2018-11-21T08:50:18.856Z,71.26
2018-11-21T08:52:47.167Z,76.31
2018-11-21T08:55:15.480Z,79.63
2018-11-21T08:57:43.788Z,80.86
2018-11-21T09:00:13.151Z,82.59
2018-11-21T09:02:41.535Z,83.40
2018-11-21T09:05:10.876Z,83.74
2018-11-21T09:07:40.347Z,84.63
2018-11-21T09:10:10.866Z,85.78
2018-11-21T09:12:39.416Z,85.57
2018-11-21T09:15:09.908Z,85.32
2018-11-21T09:17:38.209Z,85.88
2018-11-21T09:20:07.881Z,86.21
2018-11-21T09:22:36.344Z,86.52
2018-11-21T09:25:05.691Z,86.22
2018-11-21T09:27:34.399Z,85.06
2018-11-21T09:30:03.026Z,84.44
2018-11-21T09:32:31.686Z,84.53
2018-11-21T09:35:00.006Z,83.34
2018-11-21T09:37:28.310Z,82.88
2018-11-21T09:39:56.619Z,83.23
2018-11-21T09:42:24.917Z,82.92
2018-11-21T09:44:53.241Z,82.08
2018-11-21T09:47:21.527Z,81.44
2018-11-21T09:49:49.848Z,81.05
2018-11-21T09:52:18.140Z,81.94
2018-11-21T09:54:46.456Z,82.72
2018-11-21T09:57:14.759Z,82.83
2018-11-21T09:59:43.067Z,81.28
2018-11-21T10:02:47.547Z,81.02
2018-11-21T10:05:15.876Z,80.84
2018-11-21T10:07:52.184Z,79.54
2018-11-21T10:10:20.499Z,80.15
2018-11-21T10:12:48.785Z,80.57
2018-11-21T10:15:17.104Z,79.79
2018-11-21T10:17:45.401Z,79.41
2018-11-21T10:20:13.712Z,79.62
2018-11-21T10:22:42.004Z,78.33
2018-11-21T10:25:10.320Z,78.18
2018-11-21T10:27:38.617Z,78.29
2018-11-21T10:30:06.993Z,77.96
2018-11-21T10:32:35.281Z,76.38
2018-11-21T10:35:03.600Z,76.63
2018-11-21T10:37:31.884Z,75.67
2018-11-21T10:40:00.201Z,76.00
2018-11-21T10:42:28.494Z,74.58
2018-11-21T10:44:56.810Z,75.01
2018-11-21T10:47:25.105Z,74.43
2018-11-21T10:49:53.419Z,73.75
2018-11-21T10:52:21.713Z,74.27
2018-11-21T10:54:49.999Z,75.63
2018-11-21T10:57:18.303Z,76.22
2018-11-21T10:59:46.604Z,76.86
2018-11-21T11:02:26.837Z,76.84
2018-11-21T11:05:12.833Z,77.75
2018-11-21T11:08:02.878Z,78.30
2018-11-21T11:10:59.088Z,79.60
2018-11-21T11:13:54.951Z,79.01
2018-11-21T11:16:57.489Z,78.22
2018-11-21T11:19:43.346Z,77.38
2018-11-21T11:22:45.621Z,77.80
2018-11-21T11:25:31.703Z,78.77
2018-11-21T11:28:17.415Z,77.50
2018-11-21T11:31:00.185Z,76.75
2018-11-21T11:33:33.457Z,77.24
2018-11-21T11:36:32.925Z,76.69
2018-11-21T11:39:20.308Z,76.61
2018-11-21T11:42:05.936Z,77.86
2018-11-21T11:44:51.925Z,79.46
2018-11-21T11:47:31.120Z,80.65
2018-11-21T11:50:08.740Z,80.59
2018-11-21T11:52:56.143Z,80.42
2018-11-21T11:55:38.173Z,79.22
2018-11-21T11:58:24.204Z,77.37
2018-11-21T12:01:19.942Z,76.41
2018-11-21T12:04:16.391Z,75.81
2018-11-21T12:07:00.838Z,74.66
2018-11-21T12:09:46.528Z,76.19
2018-11-21T12:12:32.886Z,75.24
2018-11-21T12:15:18.160Z,75.56
2018-11-21T12:18:03.947Z,75.45
2018-11-21T12:20:54.353Z,76.59
2018-11-21T12:23:40.501Z,77.08
2018-11-21T12:26:28.846Z,78.28
2018-11-21T12:29:16.105Z,78.69
2018-11-21T12:32:02.305Z,79.03
2018-11-21T12:34:55.451Z,79.19
2018-11-21T12:37:45.480Z,79.58
2018-11-21T12:40:34.477Z,78.79
2018-11-21T12:43:30.668Z,78.56
2018-11-21T12:46:16.468Z,77.71
2018-11-21T12:49:02.174Z,78.05
2018-11-21T12:51:48.248Z,78.02
2018-11-21T12:54:33.979Z,79.01
2018-11-21T12:57:27.377Z,77.88
2018-11-21T13:00:22.184Z,77.63
2018-11-21T13:03:07.919Z,76.88
2018-11-21T13:05:54.520Z,75.27
2018-11-21T13:08:43.836Z,75.77
2018-11-21T13:11:33.344Z,76.32
2018-11-21T13:14:13.117Z,76.74
2018-11-21T13:16:59.048Z,76.86
2018-11-21T13:20:01.149Z,76.93
2018-11-21T13:22:40.593Z,77.16
2018-11-21T13:25:26.386Z,78.77
2018-11-21T13:28:13.770Z,79.46
2018-11-21T13:30:53.961Z,79.15
2018-11-21T13:33:39.952Z,79.43
2018-11-21T13:36:25.748Z,79.48
2018-11-21T13:39:11.587Z,79.01
2018-11-21T13:42:14.034Z,79.62
2018-11-21T13:44:50.899Z,79.82
2018-11-21T13:47:53.092Z,79.94
2018-11-21T13:50:58.447Z,79.57
2018-11-21T13:53:54.465Z,79.76
2018-11-21T13:56:22.725Z,80.35
2018-11-21T13:58:51.013Z,80.52
2018-11-21T14:01:19.278Z,79.95
2018-11-21T14:03:47.568Z,79.84
2018-11-21T14:06:16.066Z,80.49
2018-11-21T14:08:44.336Z,80.67
2018-11-21T14:11:12.746Z,80.60
2018-11-21T14:13:41.012Z,81.05
2018-11-21T14:16:09.328Z,81.15
2018-11-21T14:19:31.703Z,80.41
2018-11-21T14:21:59.973Z,80.73
2018-11-21T14:24:28.259Z,80.98
2018-11-21T14:26:56.543Z,81.21
2018-11-21T14:29:24.837Z,80.65
2018-11-21T14:31:53.096Z,81.03
2018-11-21T14:34:21.395Z,80.47
2018-11-21T14:36:49.654Z,80.68
2018-11-21T14:39:18.027Z,80.80
2018-11-21T14:41:47.050Z,81.10
2018-11-21T14:44:15.320Z,80.91
2018-11-21T14:46:45.499Z,80.55
2018-11-21T14:49:13.771Z,80.85
2018-11-21T14:51:42.064Z,81.29
2018-11-21T14:54:10.335Z,80.70
2018-11-21T14:56:38.617Z,81.03
2018-11-21T14:59:06.879Z,81.40
2018-11-21T15:01:35.267Z,81.47
2018-11-21T15:04:03.541Z,81.76
2018-11-21T15:06:31.815Z,82.57
2018-11-21T15:09:00.111Z,82.30
2018-11-21T15:11:28.404Z,82.05
2018-11-21T15:13:56.670Z,82.29
2018-11-21T15:16:24.968Z,82.61
2018-11-21T15:18:53.243Z,81.95
2018-11-21T15:21:21.540Z,82.37
2018-11-21T15:23:49.810Z,82.70
2018-11-21T15:26:18.102Z,83.10
2018-11-21T15:28:46.367Z,82.74
2018-11-21T15:31:14.653Z,82.94
2018-11-21T15:33:42.913Z,83.12
2018-11-21T15:36:11.202Z,82.97
2018-11-21T15:38:39.477Z,82.99
2018-11-21T15:41:07.837Z,83.44
2018-11-21T15:43:36.108Z,83.80
2018-11-21T15:46:04.392Z,84.20
2018-11-21T15:48:32.659Z,84.16
2018-11-21T15:51:00.954Z,83.74
2018-11-21T15:53:29.213Z,84.43
2018-11-21T15:55:57.495Z,83.83
2018-11-21T15:58:25.751Z,83.63
2018-11-21T16:00:54.016Z,84.08
2018-11-21T16:03:22.312Z,84.71
2018-11-21T16:05:50.584Z,84.57
2018-11-21T16:08:18.875Z,84.93
2018-11-21T16:10:48.216Z,84.95
2018-11-21T16:13:16.510Z,84.91
2018-11-21T16:15:49.239Z,85.03
2018-11-21T16:18:18.472Z,84.87
2018-11-21T16:20:46.758Z,85.15
2018-11-21T16:23:15.032Z,85.21
2018-11-21T16:25:43.296Z,85.13
2018-11-21T16:28:11.579Z,85.13
2018-11-21T16:30:39.849Z,85.04
2018-11-21T16:33:08.127Z,84.69
2018-11-21T16:35:36.390Z,84.84
2018-11-21T16:38:04.705Z,84.96
2018-11-21T16:40:33.879Z,85.15
2018-11-21T16:43:02.215Z,85.67
2018-11-21T16:45:35.611Z,85.24
2018-11-21T16:48:03.899Z,85.26
2018-11-21T16:50:32.164Z,85.34
2018-11-21T16:53:00.455Z,85.38
2018-11-21T16:55:29.096Z,85.60
2018-11-21T16:57:58.200Z,84.83
2018-11-21T17:00:27.873Z,84.69
2018-11-21T17:02:56.170Z,85.35
2018-11-21T17:05:25.675Z,85.35
2018-11-21T17:07:53.976Z,85.59
2018-11-21T17:10:24.080Z,85.77
2018-11-21T17:12:52.365Z,85.78
2018-11-21T17:15:22.157Z,85.00
2018-11-21T17:17:50.470Z,85.15
2018-11-21T17:20:23.095Z,85.51
2018-11-21T17:22:52.912Z,84.74
2018-11-21T17:25:24.084Z,85.29
2018-11-21T17:27:52.383Z,85.39
2018-11-21T17:30:21.580Z,85.27
2018-11-21T17:32:50.091Z,85.55
2018-11-21T17:35:19.062Z,85.82
2018-11-21T17:37:47.626Z,85.85
2018-11-21T17:40:40.027Z,85.51
2018-11-21T17:43:08.345Z,85.44
2018-11-21T17:45:36.616Z,85.69
2018-11-21T17:48:04.979Z,85.91
2018-11-21T17:50:33.259Z,85.71
2018-11-21T17:53:02.979Z,85.82
2018-11-21T17:55:32.139Z,86.03
2018-11-21T17:58:00.507Z,85.18
2018-11-21T18:00:30.054Z,85.47
2018-11-21T18:02:58.357Z,85.53
2018-11-21T18:05:31.367Z,85.42
2018-11-21T18:07:59.626Z,85.62
2018-11-21T18:10:29.639Z,85.67
2018-11-21T18:12:57.886Z,85.26
2018-11-21T18:15:26.180Z,85.36
2018-11-21T18:17:55.192Z,85.38
2018-11-21T18:20:23.710Z,85.32
2018-11-21T18:22:52.344Z,85.61
2018-11-21T18:25:22.575Z,85.27
2018-11-21T18:27:50.856Z,85.32
2018-11-21T18:30:20.648Z,84.56
2018-11-21T18:32:48.920Z,85.18
2018-11-21T18:35:18.702Z,85.56
2018-11-21T18:37:47.406Z,85.55
2018-11-21T18:40:17.068Z,85.30
2018-11-21T18:42:45.351Z,85.31
2018-11-21T18:45:16.386Z,84.74
2018-11-21T18:47:45.203Z,85.27
2018-11-21T18:50:14.823Z,84.91
2018-11-21T18:52:43.129Z,84.82
2018-11-21T18:55:13.786Z,85.15
2018-11-21T18:58:37.596Z,85.68
2018-11-21T19:01:06.309Z,85.82
2018-11-21T19:03:34.581Z,85.20
2018-11-21T19:06:02.873Z,84.73
2018-11-21T19:08:31.143Z,85.46
2018-11-21T19:10:59.439Z,84.93
2018-11-21T19:13:28.301Z,84.46
2018-11-21T19:15:56.587Z,84.79
2018-11-21T19:18:24.857Z,84.93
2018-11-21T19:20:53.143Z,85.36
2018-11-21T19:23:21.442Z,85.57
2018-11-21T19:25:49.805Z,84.88
2018-11-21T19:28:18.040Z,84.63
2018-11-21T19:30:46.390Z,84.97
2018-11-21T19:33:14.663Z,85.25
2018-11-21T19:35:42.959Z,85.13
2018-11-21T19:38:11.219Z,85.51
2018-11-21T19:40:39.519Z,85.06
2018-11-21T19:43:07.793Z,85.09
2018-11-21T19:45:36.081Z,84.79
2018-11-21T19:48:07.933Z,84.98
2018-11-21T19:50:36.227Z,84.74
2018-11-21T19:53:04.552Z,84.83
2018-11-21T19:55:33.892Z,84.54
2018-11-21T19:58:02.189Z,84.98
2018-11-21T20:00:31.787Z,84.78
2018-11-21T20:03:01.252Z,85.11
2018-11-21T20:05:29.519Z,84.95
2018-11-21T20:07:57.814Z,84.91
2018-11-21T20:10:26.144Z,85.28
2018-11-21T20:12:54.440Z,84.31
2018-11-21T20:15:24.043Z,84.48
2018-11-21T20:17:53.960Z,83.77
2018-11-21T20:20:22.604Z,83.77
2018-11-21T20:22:51.284Z,84.44
2018-11-21T20:25:20.591Z,83.93
2018-11-21T20:27:49.237Z,83.51
